createdAt,value
2023-01-13T00:01:20.633Z,12.50
2023-01-13T00:03:48.633Z,12.50
2023-01-13T00:06:21.613Z,12.50
2023-01-13T00:08:50.869Z,12.50
2023-01-13T00:11:19.612Z,12.50
2023-01-13T00:13:47.100Z,12.50
2023-01-13T00:16:16.852Z,12.50
2023-01-13T00:18:44.374Z,12.50
2023-01-13T00:21:17.534Z,12.50
2023-01-13T00:23:45.116Z,12.50
2023-01-13T00:26:18.354Z,12.50
2023-01-13T00:28:45.456Z,12.50
2023-01-13T00:31:18.439Z,12.50
2023-01-13T00:33:45.624Z,12.50
2023-01-13T00:36:14.427Z,12.50
2023-01-13T00:38:43.184Z,12.50
2023-01-13T00:41:15.817Z,12.50
2023-01-13T00:43:43.625Z,12.50
2023-01-13T00:46:12.901Z,12.50
2023-01-13T00:48:40.283Z,12.50
2023-01-13T00:51:18.902Z,12.40
2023-01-13T00:53:48.128Z,12.40
2023-01-13T00:56:30.520Z,12.50
2023-01-13T00:59:05.427Z,12.40
2023-01-13T01:01:33.044Z,12.40
2023-01-13T01:04:00.267Z,12.40
2023-01-13T01:06:28.276Z,12.40
2023-01-13T01:08:56.576Z,12.40
2023-01-13T01:11:29.076Z,12.40
2023-01-13T01:13:57.758Z,12.40
2023-01-13T01:16:27.428Z,12.40
2023-01-13T01:18:55.567Z,12.40
2023-01-13T01:21:24.955Z,12.40
2023-01-13T01:23:52.568Z,12.40
2023-01-13T01:26:27.574Z,12.40
2023-01-13T01:28:55.260Z,12.40
2023-01-13T01:31:24.391Z,12.40
2023-01-13T01:33:53.027Z,12.40
2023-01-13T01:36:21.901Z,12.30
2023-01-13T01:38:49.586Z,12.30
2023-01-13T01:41:22.572Z,12.30
2023-01-13T01:44:03.126Z,12.30
2023-01-13T01:46:39.405Z,12.30
2023-01-13T01:49:21.919Z,12.30
2023-01-13T01:51:59.948Z,12.30
2023-01-13T01:54:39.645Z,12.30
2023-01-13T01:57:17.877Z,12.30
2023-01-13T01:59:45.800Z,12.30
2023-01-13T02:02:13.321Z,12.20
2023-01-13T02:04:51.149Z,12.20
2023-01-13T02:07:25.407Z,12.20
2023-01-13T02:09:54.520Z,12.20
2023-01-13T02:12:32.017Z,12.20
2023-01-13T02:15:07.794Z,12.20
2023-01-13T02:17:34.855Z,12.10
2023-01-13T02:20:10.827Z,12.20
2023-01-13T02:23:29.956Z,12.10
2023-01-13T02:26:09.054Z,12.10
2023-01-13T02:29:01.974Z,12.10
2023-01-13T02:31:45.278Z,12.00
2023-01-13T02:34:30.944Z,12.00
2023-01-13T02:37:18.130Z,12.00
2023-01-13T02:39:47.993Z,12.00
2023-01-13T02:42:50.850Z,12.00
2023-01-13T02:45:32.374Z,12.00
2023-01-13T02:48:02.167Z,12.00
2023-01-13T02:50:51.888Z,12.00
2023-01-13T02:53:34.783Z,12.00
2023-01-13T02:56:03.769Z,12.00
2023-01-13T02:58:32.837Z,11.90
2023-01-13T03:01:00.001Z,11.90
2023-01-13T03:03:27.289Z,11.90
2023-01-13T03:06:03.307Z,11.90
2023-01-13T03:08:43.766Z,11.90
2023-01-13T03:11:13.418Z,11.90
2023-01-13T03:13:51.015Z,11.90
2023-01-13T03:16:35.933Z,11.90
2023-01-13T03:19:43.557Z,11.80
2023-01-13T03:22:38.231Z,11.80
2023-01-13T03:25:13.884Z,11.80
2023-01-13T03:28:03.418Z,11.80
2023-01-13T03:30:41.129Z,11.80
2023-01-13T03:33:21.710Z,11.80
2023-01-13T03:35:52.976Z,11.80
2023-01-13T03:38:33.951Z,11.80
2023-01-13T03:41:13.479Z,11.80
2023-01-13T03:44:10.914Z,11.80
2023-01-13T03:47:25.149Z,11.80
2023-01-13T03:50:29.773Z,11.80
2023-01-13T03:53:06.735Z,11.80
2023-01-13T03:55:41.427Z,11.80
2023-01-13T03:58:16.115Z,11.70
2023-01-13T04:01:05.481Z,11.70
2023-01-13T04:03:59.442Z,11.70
2023-01-13T04:06:34.858Z,11.70
2023-01-13T04:09:29.647Z,11.80
2023-01-13T04:12:53.435Z,11.70
2023-01-13T04:15:28.040Z,11.70
2023-01-13T04:18:02.039Z,11.70
2023-01-13T04:20:28.978Z,11.70
2023-01-13T04:22:55.871Z,11.70
2023-01-13T04:25:22.965Z,11.70
2023-01-13T04:27:51.929Z,11.60
2023-01-13T04:30:18.941Z,11.60
2023-01-13T04:32:45.855Z,11.60
2023-01-13T04:35:12.848Z,11.60
2023-01-13T04:37:39.866Z,11.60
2023-01-13T04:40:07.984Z,11.60
2023-01-13T04:42:34.955Z,11.60
2023-01-13T04:45:02.002Z,11.50
2023-01-13T04:47:30.069Z,11.50
2023-01-13T04:49:57.102Z,11.50
2023-01-13T04:52:24.074Z,11.50
2023-01-13T04:54:51.101Z,11.50
2023-01-13T04:57:18.224Z,11.50
2023-01-13T04:59:45.283Z,11.50
2023-01-13T05:02:19.746Z,11.50
2023-01-13T05:04:47.834Z,11.50
2023-01-13T05:07:16.871Z,11.50
2023-01-13T05:09:43.879Z,11.50
2023-01-13T05:12:29.636Z,11.40
2023-01-13T05:15:15.108Z,11.40
2023-01-13T05:17:42.604Z,11.40
2023-01-13T05:20:10.763Z,11.40
2023-01-13T05:22:56.163Z,11.40
2023-01-13T05:25:25.168Z,11.40
2023-01-13T05:27:55.036Z,11.40
2023-01-13T05:30:24.036Z,11.40
2023-01-13T05:32:51.005Z,11.40
2023-01-13T05:35:17.985Z,11.40
2023-01-13T05:37:46.452Z,11.40
2023-01-13T05:40:34.254Z,11.40
2023-01-13T05:43:20.179Z,11.40
2023-01-13T05:45:52.902Z,11.30
2023-01-13T05:48:23.067Z,11.40
2023-01-13T05:50:51.105Z,11.40
2023-01-13T05:53:18.380Z,11.30
2023-01-13T05:55:45.724Z,11.30
2023-01-13T05:58:15.308Z,11.30
2023-01-13T06:00:42.992Z,11.30
2023-01-13T06:03:10.560Z,11.30
2023-01-13T06:05:38.898Z,11.40
2023-01-13T06:08:07.508Z,11.30
2023-01-13T06:10:35.339Z,11.30
2023-01-13T06:13:02.736Z,11.30
2023-01-13T06:15:29.857Z,11.30
2023-01-13T06:17:57.238Z,11.40
2023-01-13T06:20:25.138Z,11.40
2023-01-13T06:22:53.933Z,11.40
2023-01-13T06:25:42.749Z,11.40
2023-01-13T06:28:10.377Z,11.40
2023-01-13T06:30:45.139Z,11.40
2023-01-13T06:33:15.617Z,11.40
2023-01-13T06:35:46.829Z,11.40
2023-01-13T06:38:21.917Z,11.40
2023-01-13T06:40:50.232Z,11.40
2023-01-13T06:43:19.457Z,11.40
2023-01-13T06:45:51.230Z,11.40
2023-01-13T06:48:21.752Z,11.30
2023-01-13T06:50:49.806Z,11.30
2023-01-13T06:53:17.011Z,11.30
2023-01-13T06:55:45.135Z,11.30
2023-01-13T06:58:12.082Z,11.30
2023-01-13T07:00:39.406Z,11.30
2023-01-13T07:03:14.986Z,11.30
2023-01-13T07:05:43.677Z,11.30
2023-01-13T07:08:11.610Z,11.30
2023-01-13T07:10:38.745Z,11.30
2023-01-13T07:13:24.967Z,11.30
2023-01-13T07:16:00.745Z,11.30
2023-01-13T07:18:43.957Z,11.30
2023-01-13T07:21:20.290Z,11.40
2023-01-13T07:23:48.498Z,11.40
2023-01-13T07:26:15.955Z,11.40
2023-01-13T07:28:43.004Z,11.40
2023-01-13T07:31:17.402Z,11.40
2023-01-13T07:33:45.488Z,11.40
2023-01-13T07:36:13.161Z,11.40
2023-01-13T07:38:41.092Z,11.40
2023-01-13T07:41:29.979Z,11.40
2023-01-13T07:43:57.098Z,11.40
2023-01-13T07:46:23.983Z,11.40
2023-01-13T07:48:50.961Z,11.40
2023-01-13T07:51:18.211Z,11.40
2023-01-13T07:53:45.133Z,11.20
2023-01-13T07:56:12.037Z,10.90
2023-01-13T07:58:39.079Z,10.80
2023-01-13T08:01:12.178Z,10.60
2023-01-13T08:03:40.137Z,10.50
2023-01-13T08:06:07.650Z,10.40
2023-01-13T08:08:34.584Z,10.30
2023-01-13T08:11:03.381Z,10.20
2023-01-13T08:13:30.517Z,10.20
2023-01-13T08:16:06.229Z,10.10
2023-01-13T08:18:34.586Z,10.10
2023-01-13T08:21:06.231Z,10.10
2023-01-13T08:23:33.631Z,10.10
2023-01-13T08:26:07.052Z,10.00
2023-01-13T08:28:34.192Z,10.00
2023-01-13T08:31:06.590Z,10.00
2023-01-13T08:33:34.178Z,10.00
2023-01-13T08:36:07.189Z,10.00
2023-01-13T08:38:34.701Z,10.00
2023-01-13T08:41:01.929Z,10.00
2023-01-13T08:43:28.807Z,10.00
2023-01-13T08:46:00.631Z,10.00
2023-01-13T08:48:31.288Z,10.00
2023-01-13T08:51:03.233Z,9.90
2023-01-13T08:53:30.237Z,9.90
2023-01-13T08:55:57.381Z,10.00
2023-01-13T08:58:24.480Z,10.00
2023-01-13T09:00:51.455Z,10.00
2023-01-13T09:03:18.352Z,10.00
2023-01-13T09:05:45.378Z,10.10
2023-01-13T09:08:12.924Z,10.10
2023-01-13T09:10:40.554Z,10.10
2023-01-13T09:13:12.479Z,10.10
2023-01-13T09:15:45.379Z,10.10
2023-01-13T09:18:12.615Z,10.10
2023-01-13T09:20:39.635Z,10.10
2023-01-13T09:23:10.089Z,10.20
2023-01-13T09:25:37.766Z,10.20
2023-01-13T09:28:08.644Z,10.30
2023-01-13T09:30:36.559Z,10.30
2023-01-13T09:33:21.873Z,10.40
2023-01-13T09:35:48.801Z,10.40
2023-01-13T09:38:15.668Z,10.50
2023-01-13T09:40:44.084Z,10.60
2023-01-13T09:43:39.505Z,10.60
2023-01-13T09:46:36.246Z,10.70
2023-01-13T09:49:04.367Z,10.70
2023-01-13T09:51:38.970Z,10.70
2023-01-13T09:54:20.333Z,10.80
2023-01-13T09:56:47.525Z,10.80
2023-01-13T09:59:16.440Z,10.70
2023-01-13T10:01:54.391Z,10.70
2023-01-13T10:08:44.693Z,10.70
2023-01-13T10:11:40.265Z,10.70
2023-01-13T10:14:24.213Z,10.70
2023-01-13T10:17:12.402Z,10.70
2023-01-13T10:19:48.758Z,10.70
2023-01-13T10:22:44.896Z,10.80
2023-01-13T10:25:36.855Z,10.90
2023-01-13T10:28:13.049Z,11.00
2023-01-13T10:30:45.221Z,11.10
2023-01-13T10:33:15.920Z,11.10
2023-01-13T10:36:16.931Z,11.10
2023-01-13T10:38:46.164Z,11.20
2023-01-13T10:41:16.299Z,11.20
2023-01-13T10:43:44.589Z,11.20
2023-01-13T10:46:17.638Z,11.20
2023-01-13T10:48:56.015Z,11.20
2023-01-13T10:51:38.272Z,11.30
2023-01-13T10:54:25.719Z,11.30
2023-01-13T10:57:20.059Z,11.40
2023-01-13T10:59:48.292Z,11.60
2023-01-13T11:02:27.183Z,11.80
2023-01-13T11:05:02.796Z,12.00
2023-01-13T11:07:39.612Z,12.30
2023-01-13T11:10:09.894Z,12.50
2023-01-13T11:13:05.518Z,12.70
2023-01-13T11:19:12.165Z,12.80
2023-01-13T11:21:54.559Z,12.80
2023-01-13T11:24:42.589Z,12.70
2023-01-13T11:27:44.388Z,12.60
2023-01-13T11:30:50.773Z,12.70
2023-01-13T11:33:37.798Z,12.70
2023-01-13T11:36:20.723Z,12.60
2023-01-13T11:38:54.592Z,12.50
2023-01-13T11:41:45.073Z,12.40
2023-01-13T11:44:27.811Z,12.40
2023-01-13T11:46:55.840Z,12.30
2023-01-13T11:49:32.532Z,12.30
2023-01-13T11:52:21.498Z,12.20
2023-01-13T11:55:07.909Z,12.20
2023-01-13T11:57:55.843Z,12.10
2023-01-13T12:00:47.111Z,12.10
2023-01-13T12:03:42.203Z,12.20
2023-01-13T12:06:20.416Z,12.20
2023-01-13T12:09:12.016Z,12.30
2023-01-13T12:12:03.445Z,12.30
2023-01-13T12:14:52.733Z,12.40
2023-01-13T12:17:42.328Z,12.40
2023-01-13T12:20:25.743Z,12.50
2023-01-13T12:22:56.775Z,12.50
2023-01-13T12:25:40.473Z,12.50
2023-01-13T12:28:15.248Z,12.50
2023-01-13T12:30:44.998Z,12.50
2023-01-13T12:33:42.410Z,12.50
2023-01-13T12:36:22.426Z,12.70
2023-01-13T12:39:04.343Z,12.70
2023-01-13T12:42:08.386Z,12.60
2023-01-13T12:44:35.369Z,12.60
2023-01-13T12:47:02.377Z,12.70
2023-01-13T12:49:34.793Z,12.80
2023-01-13T12:52:07.844Z,12.90
2023-01-13T12:54:37.802Z,13.00
2023-01-13T12:57:16.990Z,13.10
2023-01-13T12:59:49.151Z,13.10
2023-01-13T13:02:24.974Z,13.20
2023-01-13T13:04:56.180Z,13.30
2023-01-13T13:07:48.687Z,13.50
2023-01-13T13:10:28.077Z,13.60
2023-01-13T13:13:18.292Z,13.60
2023-01-13T13:15:50.592Z,13.50
2023-01-13T13:18:17.486Z,13.30
2023-01-13T13:21:08.657Z,13.10
2023-01-13T13:23:47.897Z,12.90
2023-01-13T13:26:19.949Z,12.70
2023-01-13T13:28:57.218Z,12.60
2023-01-13T13:31:36.092Z,12.50
2023-01-13T13:34:35.038Z,12.40
2023-01-13T13:37:23.895Z,12.30
2023-01-13T13:40:09.525Z,12.00
2023-01-13T13:43:01.711Z,11.80
2023-01-13T13:45:48.136Z,11.70
2023-01-13T13:48:25.308Z,11.60
2023-01-13T13:51:01.746Z,11.60
2023-01-13T13:53:33.006Z,11.60
2023-01-13T13:56:02.794Z,11.60
2023-01-13T13:58:34.002Z,11.70
2023-01-13T14:01:01.507Z,11.80
2023-01-13T14:03:39.004Z,11.80
2023-01-13T14:06:07.963Z,11.70
2023-01-13T14:08:37.843Z,11.60
2023-01-13T14:11:32.289Z,11.60
2023-01-13T14:14:17.340Z,11.60
2023-01-13T14:16:44.235Z,11.50
2023-01-13T14:19:35.380Z,11.40
2023-01-13T14:22:04.925Z,11.30
2023-01-13T14:24:32.333Z,11.30
2023-01-13T14:27:17.211Z,11.20
2023-01-13T14:29:45.000Z,11.20
2023-01-13T14:32:18.421Z,11.10
2023-01-13T14:34:46.114Z,11.10
2023-01-13T14:37:40.279Z,11.00
2023-01-13T14:40:27.692Z,10.90
2023-01-13T14:43:10.631Z,10.90
2023-01-13T14:45:37.748Z,10.90
2023-01-13T14:48:08.550Z,10.90
2023-01-13T14:50:35.522Z,10.90
2023-01-13T14:53:02.423Z,10.80
2023-01-13T14:55:34.517Z,10.80
2023-01-13T14:58:17.358Z,10.80
2023-01-13T15:00:44.599Z,10.80
2023-01-13T15:03:14.940Z,10.90
2023-01-13T15:05:51.287Z,10.90
2023-01-13T15:08:29.523Z,10.80
2023-01-13T15:11:00.521Z,10.70
2023-01-13T15:13:39.527Z,10.70
2023-01-13T15:16:22.480Z,10.60
2023-01-13T15:18:49.541Z,10.70
2023-01-13T15:21:17.350Z,10.60
2023-01-13T15:23:45.039Z,10.50
2023-01-13T15:26:27.035Z,10.40
2023-01-13T15:28:56.144Z,10.30
2023-01-13T15:31:24.792Z,10.10
2023-01-13T15:33:51.906Z,10.00
2023-01-13T15:36:32.299Z,9.90
2023-01-13T15:39:00.767Z,9.90
2023-01-13T15:41:47.047Z,9.80
2023-01-13T15:44:35.078Z,9.80
2023-01-13T15:47:05.140Z,9.80
2023-01-13T15:49:44.931Z,9.80
2023-01-13T15:52:21.450Z,9.90
2023-01-13T15:54:49.604Z,9.90
2023-01-13T15:57:27.320Z,9.90
2023-01-13T16:00:00.966Z,9.90
2023-01-13T16:02:29.720Z,9.90
2023-01-13T16:04:57.153Z,9.90
2023-01-13T16:07:25.160Z,9.90
2023-01-13T16:09:52.565Z,9.90
2023-01-13T16:12:19.966Z,9.90
2023-01-13T16:14:46.928Z,9.90
2023-01-13T16:17:19.589Z,9.90
2023-01-13T16:19:47.426Z,9.80
2023-01-13T16:22:16.578Z,9.80
2023-01-13T16:24:44.453Z,9.80
2023-01-13T16:27:24.451Z,9.80
2023-01-13T16:29:52.459Z,9.80
2023-01-13T16:32:20.977Z,9.80
2023-01-13T16:34:48.311Z,9.80
2023-01-13T16:37:23.791Z,9.80
2023-01-13T16:39:51.382Z,9.80
2023-01-13T16:42:18.585Z,9.80
2023-01-13T16:44:48.034Z,9.80
2023-01-13T16:47:16.876Z,9.80
2023-01-13T16:49:44.514Z,9.90
2023-01-13T16:52:11.697Z,9.90
2023-01-13T16:54:38.668Z,9.90
2023-01-13T16:57:07.394Z,9.90
2023-01-13T16:59:34.327Z,9.90
2023-01-13T17:02:02.149Z,9.90
2023-01-13T17:04:29.249Z,10.00
2023-01-13T17:07:00.442Z,10.00
2023-01-13T17:09:29.166Z,10.10
2023-01-13T17:11:56.917Z,10.10
2023-01-13T17:14:24.984Z,10.10
2023-01-13T17:16:54.700Z,10.00
2023-01-13T17:19:23.413Z,9.90
2023-01-13T17:21:51.186Z,9.80
2023-01-13T17:24:18.402Z,9.80
2023-01-13T17:26:59.681Z,9.70
2023-01-13T17:29:39.947Z,9.70
2023-01-13T17:32:19.611Z,9.60
2023-01-13T17:34:57.637Z,9.60
2023-01-13T17:37:31.296Z,9.60
2023-01-13T17:43:10.021Z,9.70
2023-01-13T17:45:58.580Z,9.70
2023-01-13T17:48:29.366Z,9.60
2023-01-13T17:51:31.911Z,9.60
2023-01-13T17:54:11.191Z,9.60
2023-01-13T17:56:45.492Z,9.60
2023-01-13T17:59:38.812Z,9.50
2023-01-13T18:02:20.890Z,9.50
2023-01-13T18:11:30.631Z,9.30
2023-01-13T18:14:17.468Z,9.20
2023-01-13T18:17:01.154Z,9.10
2023-01-13T18:23:06.972Z,9.00
2023-01-13T18:26:05.665Z,9.00
2023-01-13T18:28:46.479Z,9.00
2023-01-13T18:31:20.963Z,8.90
2023-01-13T18:33:58.959Z,8.90
2023-01-13T18:36:31.279Z,8.90
2023-01-13T18:39:15.479Z,8.80
2023-01-13T18:44:59.739Z,8.80
2023-01-13T18:47:32.012Z,8.80
2023-01-13T18:50:05.784Z,8.80
2023-01-13T18:52:46.796Z,8.80
2023-01-13T18:58:30.636Z,8.80
2023-01-13T19:01:07.989Z,8.80
2023-01-13T19:03:41.716Z,8.90
2023-01-13T19:06:24.740Z,8.90
2023-01-13T19:09:11.728Z,8.90
2023-01-13T19:11:56.114Z,8.80
2023-01-13T19:14:35.645Z,8.80
2023-01-13T19:17:28.611Z,8.80
2023-01-13T19:20:01.545Z,8.80
2023-01-13T19:22:40.091Z,8.80
2023-01-13T19:25:10.982Z,8.90
2023-01-13T19:27:42.996Z,9.00
2023-01-13T19:30:13.715Z,9.00
2023-01-13T19:32:52.294Z,9.10
2023-01-13T19:35:28.620Z,9.10
2023-01-13T19:38:11.739Z,9.10
2023-01-13T19:40:45.874Z,9.10
2023-01-13T19:43:34.327Z,9.10
2023-01-13T19:46:18.581Z,9.10
2023-01-13T19:48:46.660Z,9.00
2023-01-13T19:51:22.987Z,9.00
2023-01-13T19:54:03.624Z,8.90
2023-01-13T19:56:39.543Z,8.80
2023-01-13T19:59:25.107Z,8.80
2023-01-13T20:02:11.134Z,8.70
2023-01-13T20:08:21.461Z,8.60
2023-01-13T20:11:20.402Z,8.70
2023-01-13T20:14:02.337Z,8.70
2023-01-13T20:16:47.148Z,8.80
2023-01-13T20:19:19.979Z,8.90
2023-01-13T20:21:57.417Z,8.90
2023-01-13T20:24:27.281Z,8.90
2023-01-13T20:26:55.250Z,8.90
2023-01-13T20:29:22.541Z,9.00
2023-01-13T20:31:50.344Z,9.00
2023-01-13T20:34:20.541Z,9.10
2023-01-13T20:36:48.954Z,9.00
2023-01-13T20:39:18.170Z,9.00
2023-01-13T20:42:04.366Z,9.00
2023-01-13T20:44:31.350Z,9.00
2023-01-13T20:46:59.106Z,8.90
2023-01-13T20:49:27.855Z,8.90
2023-01-13T20:51:55.748Z,8.90
2023-01-13T20:54:23.104Z,8.90
2023-01-13T20:56:50.132Z,8.80
2023-01-13T20:59:17.335Z,8.80
2023-01-13T21:01:44.300Z,8.80
2023-01-13T21:04:11.409Z,8.80
2023-01-13T21:06:38.411Z,8.90
2023-01-13T21:09:05.331Z,8.90
2023-01-13T21:11:50.728Z,9.00
2023-01-13T21:14:42.079Z,9.00
2023-01-13T21:17:32.317Z,9.10
2023-01-13T21:19:59.284Z,9.10
2023-01-13T21:22:26.813Z,9.10
2023-01-13T21:24:53.816Z,9.10
2023-01-13T21:27:20.998Z,9.10
2023-01-13T21:29:47.923Z,9.00
2023-01-13T21:32:14.797Z,9.00
2023-01-13T21:34:41.782Z,8.90
2023-01-13T21:37:08.894Z,9.00
2023-01-13T21:39:36.176Z,9.00
2023-01-13T21:42:21.601Z,9.00
2023-01-13T21:45:06.861Z,9.10
2023-01-13T21:47:48.749Z,9.10
2023-01-13T21:50:24.410Z,9.00
2023-01-13T21:52:55.062Z,9.00
2023-01-13T21:55:25.343Z,9.10
2023-01-13T21:57:57.857Z,9.00
2023-01-13T22:00:27.562Z,9.10
2023-01-13T22:02:54.546Z,9.10
2023-01-13T22:05:23.280Z,9.10
2023-01-13T22:07:50.935Z,9.10
2023-01-13T22:10:20.927Z,9.10
2023-01-13T22:12:48.680Z,9.10
2023-01-13T22:15:17.863Z,9.10
2023-01-13T22:17:45.802Z,9.10
2023-01-13T22:20:13.393Z,9.10
2023-01-13T22:22:40.397Z,9.10
2023-01-13T22:25:10.676Z,9.00
2023-01-13T22:27:40.701Z,8.90
2023-01-13T22:30:21.807Z,9.00
2023-01-13T22:32:48.841Z,9.00
2023-01-13T22:35:16.576Z,9.00
2023-01-13T22:37:43.451Z,9.10
2023-01-13T22:40:11.892Z,9.10
2023-01-13T22:42:39.725Z,9.10
2023-01-13T22:45:14.003Z,9.20
2023-01-13T22:47:40.948Z,9.20
2023-01-13T22:50:09.896Z,9.20
2023-01-13T22:52:36.831Z,9.30
2023-01-13T22:55:04.293Z,9.30
2023-01-13T22:57:47.590Z,9.30
2023-01-13T23:00:18.853Z,9.30
2023-01-13T23:02:46.100Z,9.30
2023-01-13T23:05:13.872Z,9.30
2023-01-13T23:07:41.122Z,9.30
2023-01-13T23:10:08.621Z,9.40
2023-01-13T23:12:35.481Z,9.40
2023-01-13T23:15:02.578Z,9.40
2023-01-13T23:17:29.570Z,9.40
2023-01-13T23:19:57.078Z,9.40
2023-01-13T23:22:23.993Z,9.30
2023-01-13T23:24:50.920Z,9.30
2023-01-13T23:27:17.831Z,9.40
2023-01-13T23:29:44.686Z,9.30
2023-01-13T23:32:11.564Z,9.30
2023-01-13T23:34:38.483Z,9.30
2023-01-13T23:37:05.393Z,9.30
2023-01-13T23:39:32.285Z,9.30
2023-01-13T23:41:59.574Z,9.30
2023-01-13T23:44:26.511Z,9.30
2023-01-13T23:46:53.335Z,9.30
2023-01-13T23:49:20.552Z,9.30
2023-01-13T23:51:51.006Z,9.30
2023-01-13T23:54:18.851Z,9.30
2023-01-13T23:56:45.757Z,9.30
2023-01-13T23:59:12.714Z,9.30
